Time;durP1;ratioP1;P1;durP2;ratioP2;P2;SDS_P1;SDS_P2;PMS_P1;PMS_P2;Temp;Humidity;BMP_temperature;BMP_pressure;BME280_temperature;BME280_humidity;BME280_pressure;Samples;Min_cycle;Max_cycle;Signal;HPM_P1;HPM_P2
2022/05/06 03:00:38;;;;;;;450.55;44.17;;;9.40;99.90;;;;;;5828978;23;20438;-81
2022/05/06 03:03:04;;;;;;;282.77;40.30;;;9.40;99.90;;;;;;4901611;29;20040;-81
2022/05/06 03:05:29;;;;;;;516.63;49.17;;;9.40;99.90;;;;;;4918793;29;20048;-81
2022/05/06 03:07:56;;;;;;;587.75;53.13;;;9.40;99.90;;;;;;4936208;29;20066;-82
2022/05/06 03:10:21;;;;;;;499.23;46.92;;;9.30;99.90;;;;;;4918892;29;20165;-83
2022/05/06 03:12:47;;;;;;;498.20;51.53;;;9.30;99.90;;;;;;4919385;29;20047;-81
2022/05/06 03:15:14;;;;;;;500.42;54.03;;;9.30;99.90;;;;;;4919003;29;20054;-81
2022/05/06 03:17:40;;;;;;;572.25;54.58;;;9.30;99.90;;;;;;4902854;29;20039;-81
2022/05/06 03:20:08;;;;;;;454.10;48.53;;;9.20;99.90;;;;;;4918850;29;20059;-81
2022/05/06 03:22:40;;;;;;;523.20;51.30;;;9.20;99.90;;;;;;4918687;29;20043;-82
2022/05/06 03:25:06;;;;;;;509.25;51.67;;;9.30;99.90;;;;;;4920716;29;20047;-82
2022/05/06 03:30:16;;;;;;;466.65;53.97;;;9.30;99.90;;;;;;4922292;29;20060;-82
2022/05/06 03:32:42;;;;;;;745.40;63.95;;;9.50;99.90;;;;;;4922159;29;20076;-83
2022/05/06 03:35:08;;;;;;;579.53;56.30;;;9.50;99.90;;;;;;4939234;29;20071;-83
2022/05/06 03:37:36;;;;;;;344.75;46.97;;;9.50;99.90;;;;;;4922094;29;20099;-82
2022/05/06 03:40:02;;;;;;;599.17;56.72;;;9.50;99.90;;;;;;4922203;29;20055;-82
2022/05/06 03:42:28;;;;;;;371.65;47.22;;;9.50;99.90;;;;;;4921936;29;20099;-83
2022/05/06 03:44:54;;;;;;;289.42;47.92;;;9.50;99.90;;;;;;4922229;29;20052;-82
2022/05/06 03:47:20;;;;;;;368.23;52.30;;;9.60;99.90;;;;;;4921727;29;20151;-82
2022/05/06 03:51:20;;;;;;;462.63;53.22;;;9.60;99.90;;;;;;4921763;29;20051;-82
2022/05/06 03:52:31;;;;;;;352.75;47.35;;;9.70;99.90;;;;;;4921645;29;20515;-83
2022/05/06 03:54:56;;;;;;;427.63;48.58;;;9.70;99.90;;;;;;4921443;29;20047;-83
2022/05/06 03:57:22;;;;;;;817.33;63.67;;;9.80;99.90;;;;;;4938578;29;20044;-84
2022/05/06 03:59:47;;;;;;;299.33;49.28;;;9.80;99.90;;;;;;4905774;29;20139;-82
2022/05/06 04:02:13;;;;;;;333.85;45.88;;;9.90;99.90;;;;;;4921477;29;20075;-83
2022/05/06 04:04:39;;;;;;;237.50;45.42;;;9.90;99.90;;;;;;4921657;29;20047;-83
2022/05/06 04:07:04;;;;;;;249.38;41.33;;;10.00;99.90;;;;;;4920733;29;20043;-83
2022/05/06 04:09:30;;;;;;;279.80;44.85;;;10.00;99.90;;;;;;4921350;29;20047;-81
2022/05/06 04:11:58;;;;;;;414.50;47.60;;;10.00;99.90;;;;;;4921305;29;20043;-82
2022/05/06 04:14:24;;;;;;;423.13;48.67;;;10.00;99.90;;;;;;4905263;29;20044;-82
2022/05/06 04:16:49;;;;;;;774.40;61.53;;;10.10;99.90;;;;;;4938197;29;20404;-82
2022/05/06 04:19:15;;;;;;;382.27;47.80;;;10.10;99.90;;;;;;4921199;29;20044;-82
2022/05/06 04:24:24;;;;;;;292.50;43.33;;;10.20;99.90;;;;;;4921025;29;20119;-81
2022/05/06 04:26:50;;;;;;;189.13;40.05;;;10.20;99.90;;;;;;4921146;29;20059;-82
2022/05/06 04:29:16;;;;;;;248.40;39.67;;;10.20;99.90;;;;;;4921774;29;20048;-82
2022/05/06 04:31:41;;;;;;;273.73;39.90;;;10.20;99.90;;;;;;4920756;29;20376;-83
2022/05/06 04:34:07;;;;;;;360.25;41.08;;;10.20;99.90;;;;;;4920821;29;20174;-82
2022/05/06 04:36:33;;;;;;;503.88;45.70;;;10.30;99.90;;;;;;4920597;29;20098;-83
2022/05/06 04:38:58;;;;;;;361.13;40.80;;;10.20;99.90;;;;;;4921019;29;20432;-82
2022/05/06 04:41:24;;;;;;;289.77;36.63;;;10.10;99.90;;;;;;4937719;29;20156;-83
2022/05/06 04:43:50;;;;;;;267.92;37.60;;;10.10;99.90;;;;;;4937890;29;20040;-84
2022/05/06 04:46:16;;;;;;;328.40;37.17;;;10.10;99.90;;;;;;4937595;29;20043;-84
2022/05/06 04:48:41;;;;;;;461.08;44.65;;;10.10;99.90;;;;;;4938113;29;20035;-82
2022/05/06 04:51:07;;;;;;;330.27;39.38;;;10.00;99.90;;;;;;4920777;29;20476;-82
2022/05/06 04:53:32;;;;;;;241.93;34.90;;;10.00;99.90;;;;;;4920503;29;20051;-82
2022/05/06 04:55:58;;;;;;;318.85;34.65;;;9.90;99.90;;;;;;4920443;29;20044;-81
2022/05/06 04:58:24;;;;;;;271.17;36.00;;;9.80;99.90;;;;;;4904876;29;20439;-84
2022/05/06 05:00:49;;;;;;;245.35;32.20;;;9.80;99.90;;;;;;4937597;29;20063;-83
2022/05/06 05:03:15;;;;;;;217.43;33.17;;;9.80;99.90;;;;;;4920303;29;20047;-83
2022/05/06 05:05:41;;;;;;;300.23;35.92;;;9.80;99.90;;;;;;4920256;29;20488;-83
2022/05/06 05:08:09;;;;;;;295.83;38.17;;;9.80;99.90;;;;;;4920747;29;20501;-83
2022/05/06 05:10:35;;;;;;;233.73;34.58;;;9.90;99.90;;;;;;4920476;29;20102;-83
2022/05/06 05:13:01;;;;;;;272.88;36.47;;;9.90;99.90;;;;;;4920070;29;20050;-82
2022/05/06 05:15:27;;;;;;;351.20;37.85;;;9.90;99.90;;;;;;4920349;29;20043;-85
2022/05/06 05:17:53;;;;;;;411.60;38.60;;;10.00;99.90;;;;;;4920965;29;20054;-82
2022/05/06 05:20:18;;;;;;;439.85;41.97;;;10.00;99.90;;;;;;4920473;29;20035;-85
2022/05/06 05:22:44;;;;;;;495.58;44.40;;;10.10;99.90;;;;;;4920500;29;20567;-83
2022/05/06 05:25:10;;;;;;;269.60;36.50;;;10.20;99.90;;;;;;4920607;29;20076;-81
2022/05/06 05:27:39;;;;;;;389.60;40.03;;;10.20;99.90;;;;;;4920806;29;20052;-83
2022/05/06 05:30:08;;;;;;;229.82;37.65;;;10.30;99.90;;;;;;4937340;29;20118;-83
2022/05/06 05:32:34;;;;;;;203.55;29.73;;;10.30;99.90;;;;;;4920288;29;20071;-84
2022/05/06 05:34:59;;;;;;;248.43;30.52;;;10.30;99.90;;;;;;4920398;29;20047;-82
2022/05/06 05:37:25;;;;;;;220.98;27.80;;;10.30;99.90;;;;;;4904520;29;20049;-84
2022/05/06 05:39:51;;;;;;;201.52;25.50;;;10.30;99.90;;;;;;4920264;29;20047;-85
2022/05/06 05:42:22;;;;;;;99.03;23.77;;;10.30;99.90;;;;;;4905425;29;20127;-84
2022/05/06 05:50:16;;;;;;;84.18;14.98;;;10.30;99.90;;;;;;4919663;29;20051;-85
2022/05/06 05:52:42;;;;;;;63.65;15.82;;;10.30;99.90;;;;;;4918209;29;20438;-84
2022/05/06 05:55:08;;;;;;;68.82;16.27;;;10.40;99.90;;;;;;4919956;29;20134;-86
2022/05/06 05:57:34;;;;;;;67.13;16.38;;;10.40;99.90;;;;;;4919652;29;20054;-83
2022/05/06 05:59:59;;;;;;;77.28;18.63;;;10.40;99.90;;;;;;4919857;29;20039;-84
2022/05/06 06:02:26;;;;;;;138.77;16.25;;;10.50;99.90;;;;;;4919656;29;20436;-82
2022/05/06 06:04:52;;;;;;;70.50;15.57;;;10.40;99.90;;;;;;4919769;29;20197;-84
2022/05/06 06:07:18;;;;;;;93.68;16.33;;;10.50;99.90;;;;;;4920131;29;20071;-85
2022/05/06 06:09:44;;;;;;;87.25;18.58;;;10.50;99.90;;;;;;4920122;29;20496;-85
2022/05/06 06:12:10;;;;;;;74.10;16.55;;;10.50;99.90;;;;;;4919882;29;20103;-82
2022/05/06 06:14:35;;;;;;;69.70;19.13;;;10.60;99.90;;;;;;4919775;29;20043;-84
2022/05/06 06:17:02;;;;;;;106.68;15.32;;;10.60;99.90;;;;;;4919472;29;20099;-83
2022/05/06 06:19:28;;;;;;;94.65;16.27;;;10.60;99.90;;;;;;4919870;29;20036;-86
2022/05/06 06:21:54;;;;;;;84.57;15.85;;;10.60;99.90;;;;;;4919065;29;20051;-87
2022/05/06 06:24:19;;;;;;;109.75;17.10;;;10.50;99.90;;;;;;4937140;29;20495;-86
2022/05/06 06:26:45;;;;;;;60.75;16.25;;;10.60;99.90;;;;;;4919746;29;20040;-85
2022/05/06 06:29:11;;;;;;;44.17;14.15;;;10.60;99.90;;;;;;4919521;29;20500;-83
2022/05/06 06:31:38;;;;;;;49.75;14.45;;;10.60;99.90;;;;;;4936768;29;20044;-84
2022/05/06 06:34:04;;;;;;;67.05;16.25;;;10.60;99.90;;;;;;4919113;29;20098;-83
2022/05/06 06:36:30;;;;;;;58.05;20.23;;;10.60;99.90;;;;;;4919205;29;20476;-86
2022/05/06 06:38:56;;;;;;;42.92;20.38;;;10.60;99.90;;;;;;4919398;29;20559;-83
2022/05/06 06:41:22;;;;;;;41.42;16.05;;;10.60;99.90;;;;;;4919013;29;20047;-85
2022/05/06 06:43:48;;;;;;;36.50;14.48;;;10.70;99.90;;;;;;4936432;29;20393;-84
2022/05/06 06:46:14;;;;;;;32.35;14.13;;;10.70;99.90;;;;;;4918982;29;20071;-84
2022/05/06 06:48:41;;;;;;;29.45;12.98;;;10.70;99.90;;;;;;4903390;29;20044;-86
2022/05/06 06:51:07;;;;;;;31.83;12.63;;;10.70;99.90;;;;;;4936163;29;20118;-85
2022/05/06 06:53:33;;;;;;;34.35;15.60;;;10.80;99.90;;;;;;4936097;29;20056;-85
2022/05/06 06:55:58;;;;;;;29.63;15.18;;;10.80;99.90;;;;;;4919078;29;20054;-86
2022/05/06 06:58:27;;;;;;;29.67;13.80;;;11.00;99.90;;;;;;4937052;29;20048;-86
2022/05/06 07:00:53;;;;;;;30.38;14.38;;;11.00;99.90;;;;;;4922556;29;20396;-86
2022/05/06 07:03:20;;;;;;;33.70;14.80;;;11.10;99.90;;;;;;4925620;29;20066;-87
2022/05/06 07:13:59;;;;;;;35.58;15.20;;;11.30;99.90;;;;;;4931375;29;20047;-86
2022/05/06 07:16:24;;;;;;;29.05;14.70;;;11.40;99.90;;;;;;4924176;29;20043;-85
2022/05/06 07:18:50;;;;;;;32.80;15.27;;;11.30;99.90;;;;;;4923627;29;20150;-85
2022/05/06 07:21:16;;;;;;;35.70;15.75;;;11.40;99.90;;;;;;4940428;29;20106;-85
2022/05/06 07:23:42;;;;;;;37.67;16.42;;;11.40;99.90;;;;;;4923378;29;20050;-87
2022/05/06 07:26:07;;;;;;;34.97;15.70;;;11.50;99.90;;;;;;4923127;29;20119;-83
2022/05/06 07:28:33;;;;;;;31.73;15.05;;;11.50;99.90;;;;;;4907217;29;20040;-83
2022/05/06 07:30:59;;;;;;;33.80;16.83;;;11.60;99.90;;;;;;4907428;29;20131;-85
2022/05/06 07:33:24;;;;;;;35.13;16.48;;;11.60;99.90;;;;;;4924461;29;20039;-86
2022/05/06 07:35:50;;;;;;;31.13;15.93;;;11.70;99.90;;;;;;4923745;29;20048;-84
2022/05/06 07:38:16;;;;;;;36.90;17.27;;;11.70;99.90;;;;;;4922621;29;20043;-85
2022/05/06 07:40:41;;;;;;;32.95;17.75;;;11.70;99.90;;;;;;4923232;29;20044;-84
2022/05/06 07:43:07;;;;;;;33.70;16.77;;;11.80;99.90;;;;;;4924425;29;20083;-83
2022/05/06 07:45:34;;;;;;;29.10;15.63;;;11.90;99.90;;;;;;4941228;29;20453;-83
2022/05/06 07:48:03;;;;;;;25.42;14.55;;;11.90;99.90;;;;;;4923746;29;20043;-83
2022/05/06 07:50:30;;;;;;;26.80;15.55;;;12.00;99.90;;;;;;4908178;29;20047;-85
2022/05/06 07:52:56;;;;;;;24.65;14.15;;;12.00;99.90;;;;;;4940244;29;20047;-84
2022/05/06 07:55:21;;;;;;;22.33;13.00;;;12.20;99.90;;;;;;4923933;29;20035;-83
2022/05/06 07:57:48;;;;;;;22.42;13.68;;;12.20;99.90;;;;;;4923798;29;20039;-83
2022/05/06 08:00:15;;;;;;;22.65;13.52;;;12.20;99.90;;;;;;4939943;29;20036;-82
2022/05/06 08:05:27;;;;;;;20.85;12.27;;;12.30;99.90;;;;;;4939673;29;20043;-81
2022/05/06 08:07:54;;;;;;;18.27;11.98;;;12.50;99.90;;;;;;4922106;29;20114;-83
2022/05/06 08:10:20;;;;;;;19.15;11.88;;;12.60;99.90;;;;;;4938929;29;20052;-82
2022/05/06 08:12:46;;;;;;;17.13;11.40;;;12.60;99.90;;;;;;4939602;29;20419;-82
2022/05/06 08:15:12;;;;;;;15.85;10.45;;;12.70;99.90;;;;;;4939114;29;20054;-81
2022/05/06 08:17:41;;;;;;;14.43;9.65;;;12.70;99.90;;;;;;4939258;29;20075;-83
2022/05/06 08:20:10;;;;;;;13.95;9.43;;;12.80;99.90;;;;;;4921388;29;20126;-80
2022/05/06 08:22:36;;;;;;;14.38;9.63;;;12.90;99.90;;;;;;4939294;29;20047;-82
2022/05/06 08:25:06;;;;;;;15.88;10.82;;;13.00;99.90;;;;;;4939512;29;20036;-83
2022/05/06 08:27:39;;;;;;;16.35;10.10;;;13.20;99.90;;;;;;4938735;29;20488;-83
2022/05/06 08:30:12;;;;;;;13.90;10.10;;;13.20;99.90;;;;;;4921653;29;20548;-84
2022/05/06 08:32:41;;;;;;;16.90;10.57;;;13.40;99.90;;;;;;4921659;29;20052;-82
2022/05/06 08:35:08;;;;;;;14.45;9.73;;;13.30;99.90;;;;;;4921515;29;20047;-82
2022/05/06 08:37:45;;;;;;;13.63;9.15;;;13.20;99.90;;;;;;4921296;29;20131;-82
2022/05/06 08:40:22;;;;;;;15.60;10.07;;;13.30;99.90;;;;;;4921043;29;20048;-80
2022/05/06 08:42:49;;;;;;;13.60;9.35;;;13.20;99.90;;;;;;4920876;29;20138;-81
2022/05/06 08:50:53;;;;;;;11.20;8.30;;;13.70;99.90;;;;;;4920779;29;20051;-82
2022/05/06 08:53:28;;;;;;;12.02;7.72;;;13.80;99.90;;;;;;4938753;29;20036;-88
2022/05/06 08:55:56;;;;;;;10.63;7.10;;;13.90;99.90;;;;;;4920977;29;20075;-82
2022/05/06 08:58:25;;;;;;;12.23;8.43;;;14.10;99.90;;;;;;4937868;29;20102;-83
2022/05/06 09:01:09;;;;;;;10.88;7.47;;;14.20;99.90;;;;;;4937651;29;20369;-84
2022/05/06 09:03:41;;;;;;;8.65;6.72;;;14.30;99.90;;;;;;4920712;29;20043;-86
2022/05/06 09:06:17;;;;;;;8.70;6.53;;;14.20;99.90;;;;;;4937648;29;20455;-84
2022/05/06 09:08:44;;;;;;;14.30;7.00;;;14.30;99.90;;;;;;4920690;29;20492;-84
2022/05/06 09:11:10;;;;;;;9.70;7.05;;;14.40;99.90;;;;;;4920516;29;20079;-83
2022/05/06 09:13:48;;;;;;;10.45;6.85;;;14.40;99.90;;;;;;4921201;29;20087;-84
2022/05/06 09:19:09;;;;;;;9.18;7.47;;;14.70;99.90;;;;;;4921358;29;20484;-85
2022/05/06 09:21:36;;;;;;;10.57;7.30;;;14.80;99.90;;;;;;4920541;29;20058;-84
2022/05/06 09:24:16;;;;;;;9.10;6.68;;;14.70;99.90;;;;;;4920026;29;20058;-84
2022/05/06 09:27:14;;;;;;;9.05;6.47;;;14.80;99.90;;;;;;4937323;29;20492;-84
2022/05/06 09:29:43;;;;;;;8.18;6.35;;;14.80;99.90;;;;;;4936881;29;20039;-83
2022/05/06 09:32:14;;;;;;;9.60;6.32;;;15.00;99.90;;;;;;4919934;29;20075;-83
2022/05/06 09:34:40;;;;;;;8.60;6.13;;;15.10;99.90;;;;;;4937210;29;20036;-85
2022/05/06 09:37:07;;;;;;;8.48;6.13;;;15.30;99.90;;;;;;4919833;29;20058;-83
2022/05/06 09:39:33;;;;;;;8.38;6.20;;;15.40;99.90;;;;;;4904157;29;20496;-84
2022/05/06 09:42:04;;;;;;;8.68;6.22;;;15.50;99.90;;;;;;4919255;29;20048;-84
2022/05/06 09:44:29;;;;;;;8.23;5.97;;;15.60;99.90;;;;;;4919951;29;20075;-86
2022/05/06 09:47:08;;;;;;;8.30;6.22;;;15.70;99.90;;;;;;4919732;29;20071;-86
2022/05/06 09:49:41;;;;;;;8.35;5.80;;;15.70;99.90;;;;;;4920216;29;20051;-84
2022/05/06 09:52:13;;;;;;;7.47;5.35;;;15.80;99.90;;;;;;4937069;29;20377;-85
2022/05/06 09:54:41;;;;;;;8.02;5.38;;;15.90;99.90;;;;;;4937007;29;20373;-81
2022/05/06 09:57:09;;;;;;;7.50;4.95;;;15.90;99.90;;;;;;4919459;29;20043;-82
2022/05/06 09:59:36;;;;;;;7.78;5.38;;;16.00;99.90;;;;;;4937140;29;20488;-82
2022/05/06 10:02:04;;;;;;;5.95;4.82;;;16.50;99.90;;;;;;4936346;29;20050;-81
2022/05/06 10:04:29;;;;;;;7.72;5.30;;;16.90;99.90;;;;;;4937060;29;20031;-83
2022/05/06 10:07:00;;;;;;;6.57;4.97;;;17.00;99.90;;;;;;4936924;29;20050;-81
2022/05/06 10:09:29;;;;;;;8.00;4.50;;;17.00;99.90;;;;;;4904807;29;20082;-83
2022/05/06 10:11:58;;;;;;;6.47;4.47;;;16.90;99.90;;;;;;4936546;29;20051;-82
2022/05/06 10:14:25;;;;;;;9.00;4.70;;;17.20;99.90;;;;;;4936754;29;20050;-80
2022/05/06 10:16:50;;;;;;;5.50;3.90;;;17.40;99.90;;;;;;4936377;29;20126;-82
2022/05/06 10:19:27;;;;;;;8.23;3.92;;;17.60;99.90;;;;;;4936437;29;20118;-79
2022/05/06 10:21:55;;;;;;;6.13;3.60;;;17.60;99.90;;;;;;4936388;29;20054;-83
2022/05/06 10:24:21;;;;;;;5.53;3.28;;;17.50;99.90;;;;;;4936761;29;20043;-82
2022/05/06 10:26:53;;;;;;;7.15;3.28;;;17.80;99.90;;;;;;4936603;29;20392;-79
2022/05/06 10:32:53;;;;;;;4.25;3.40;;;17.80;99.90;;;;;;4936408;29;20377;-82
2022/05/06 10:35:36;;;;;;;4.22;3.13;;;18.00;99.90;;;;;;4936209;29;20110;-81
2022/05/06 10:38:24;;;;;;;4.32;3.40;;;18.20;99.90;;;;;;4936228;29;20049;-81
2022/05/06 10:40:52;;;;;;;5.20;3.53;;;18.20;99.90;;;;;;4936050;29;20444;-81
2022/05/06 10:43:50;;;;;;;5.18;3.50;;;18.30;99.90;;;;;;4936111;29;20511;-81
2022/05/06 10:46:33;;;;;;;5.35;3.53;;;18.40;99.90;;;;;;4914489;29;20151;-82
2022/05/06 10:49:46;;;;;;;6.05;3.63;;;18.70;99.90;;;;;;4919090;29;20087;-80
2022/05/06 10:52:24;;;;;;;5.63;3.72;;;18.80;99.90;;;;;;4936014;29;20440;-83
2022/05/06 10:54:55;;;;;;;6.45;4.13;;;18.70;99.90;;;;;;4936442;29;20047;-82
2022/05/06 10:57:25;;;;;;;8.80;4.50;;;18.90;99.90;;;;;;4918929;29;20083;-84
2022/05/06 10:59:55;;;;;;;6.45;4.47;;;18.90;99.90;;;;;;4935935;29;20086;-76
2022/05/06 11:02:29;;;;;;;5.22;4.43;;;19.10;99.90;;;;;;4935822;29;20042;-82
2022/05/06 11:05:02;;;;;;;8.15;3.92;;;19.00;99.90;;;;;;4918801;29;20051;-85
2022/05/06 11:07:30;;;;;;;5.30;4.18;;;19.10;99.90;;;;;;4936429;29;20071;-84
2022/05/06 11:09:56;;;;;;;8.05;5.18;;;19.30;99.90;;;;;;4936231;29;20122;-80
2022/05/06 11:12:40;;;;;;;6.40;4.88;;;19.30;99.90;;;;;;4935657;29;20075;-80
2022/05/06 11:15:13;;;;;;;10.00;4.60;;;19.50;99.90;;;;;;4935929;29;20099;-83
2022/05/06 11:17:39;;;;;;;6.47;5.03;;;19.70;99.90;;;;;;4936390;29;20039;-83
2022/05/06 11:20:22;;;;;;;7.82;4.90;;;19.70;99.90;;;;;;4936689;29;20043;-82
2022/05/06 11:23:04;;;;;;;6.50;4.90;;;19.70;99.90;;;;;;4904517;29;20082;-83
2022/05/06 11:25:34;;;;;;;7.80;5.47;;;19.80;99.90;;;;;;4919776;29;20484;-83
2022/05/06 11:28:03;;;;;;;7.35;5.00;;;20.20;99.90;;;;;;4936466;29;20040;-84
2022/05/06 11:30:30;;;;;;;6.10;5.13;;;20.00;99.90;;;;;;4919255;29;20079;-83
2022/05/06 11:33:01;;;;;;;8.70;5.28;;;20.00;99.90;;;;;;4936925;29;20094;-84
2022/05/06 11:35:45;;;;;;;7.10;4.20;;;20.20;99.90;;;;;;4919049;29;20103;-85
2022/05/06 11:38:11;;;;;;;5.88;4.40;;;20.50;99.90;;;;;;4936792;29;20110;-83
2022/05/06 11:40:37;;;;;;;6.43;5.13;;;20.30;99.90;;;;;;4935917;29;20561;-84
2022/05/06 11:43:05;;;;;;;8.45;5.25;;;20.10;99.90;;;;;;4918707;29;20050;-84
2022/05/06 11:48:22;;;;;;;6.30;5.00;;;20.30;99.90;;;;;;4922504;29;20496;-81
2022/05/06 11:50:54;;;;;;;7.60;5.07;;;20.30;99.90;;;;;;4906223;29;20095;-83
2022/05/06 11:53:21;;;;;;;9.77;5.10;;;20.40;99.90;;;;;;4940075;29;20042;-85
2022/05/06 11:55:46;;;;;;;8.20;4.80;;;20.70;99.90;;;;;;4922894;29;20051;-83
2022/05/06 11:58:16;;;;;;;6.88;4.90;;;21.00;99.90;;;;;;4922671;29;20138;-86
2022/05/06 12:00:43;;;;;;;11.82;4.63;;;20.90;99.90;;;;;;4922086;29;20062;-84
2022/05/06 12:03:10;;;;;;;7.32;5.00;;;20.90;99.90;;;;;;4922202;29;20050;-84
2022/05/06 12:05:37;;;;;;;7.68;5.18;;;20.90;99.90;;;;;;4922904;29;20331;-85
2022/05/06 12:08:04;;;;;;;7.50;4.82;;;21.20;99.90;;;;;;4939488;29;20499;-84
2022/05/06 12:10:32;;;;;;;9.07;5.72;;;21.10;99.90;;;;;;4939719;29;20050;-83
2022/05/06 12:13:00;;;;;;;10.23;6.45;;;21.10;99.90;;;;;;4922244;29;20091;-83
2022/05/06 12:15:29;;;;;;;8.95;5.63;;;20.80;99.90;;;;;;4922176;29;20057;-83
2022/05/06 12:18:01;;;;;;;10.45;6.90;;;20.80;99.90;;;;;;4921723;29;20052;-81
2022/05/06 12:20:31;;;;;;;9.02;5.50;;;20.70;99.90;;;;;;4921882;29;20054;-83
2022/05/06 12:23:00;;;;;;;10.20;5.05;;;20.50;99.90;;;;;;4906684;29;20086;-81
2022/05/06 12:25:29;;;;;;;8.27;4.90;;;20.80;99.90;;;;;;4939002;29;20039;-85
2022/05/06 12:28:10;;;;;;;11.82;4.47;;;20.90;99.90;;;;;;4906807;29;20047;-84
2022/05/06 12:30:38;;;;;;;7.43;4.25;;;20.40;99.90;;;;;;4921395;29;20050;-85
2022/05/06 12:33:13;;;;;;;7.10;4.25;;;20.20;99.90;;;;;;4918810;29;20055;-84
2022/05/06 12:35:59;;;;;;;7.05;3.60;;;20.40;99.90;;;;;;4902840;29;20044;-82
2022/05/06 12:38:26;;;;;;;6.20;3.00;;;21.00;99.90;;;;;;4930485;29;20118;-81
2022/05/06 12:40:53;;;;;;;5.72;2.40;;;21.10;99.90;;;;;;4921070;29;20047;-83
2022/05/06 12:43:26;;;;;;;4.85;2.58;;;21.20;99.90;;;;;;4921687;29;20400;-82
2022/05/06 12:45:59;;;;;;;4.82;2.55;;;21.40;99.90;;;;;;4938627;29;20036;-83
2022/05/06 12:51:09;;;;;;;6.70;3.10;;;21.20;99.90;;;;;;4921175;29;20060;-83
2022/05/06 12:53:35;;;;;;;5.97;3.20;;;21.30;99.90;;;;;;4921221;29;20050;-82
2022/05/06 12:56:04;;;;;;;7.18;3.60;;;21.40;99.90;;;;;;4922376;29;20130;-82
2022/05/06 12:58:31;;;;;;;6.57;3.90;;;21.50;99.70;;;;;;4925732;29;20069;-84
2022/05/06 13:01:00;;;;;;;6.55;3.75;;;21.30;99.20;;;;;;4925654;29;20058;-81
2022/05/06 13:03:26;;;;;;;7.38;4.13;;;21.30;98.30;;;;;;4925656;29;20070;-83
2022/05/06 13:05:53;;;;;;;7.93;4.15;;;21.50;99.10;;;;;;4955489;29;20035;-82
2022/05/06 13:08:20;;;;;;;8.20;4.45;;;21.50;98.80;;;;;;4941544;29;20078;-78
2022/05/06 13:10:45;;;;;;;8.30;5.97;;;21.10;98.80;;;;;;4938148;29;20059;-82
2022/05/06 13:13:11;;;;;;;7.15;5.22;;;21.10;99.40;;;;;;4923192;29;20050;-83
2022/05/06 13:15:37;;;;;;;7.00;4.75;;;21.20;99.90;;;;;;4921313;29;20130;-80
2022/05/06 13:18:03;;;;;;;11.88;6.53;;;21.20;99.90;;;;;;4920809;29;20051;-82
2022/05/06 13:20:28;;;;;;;10.65;6.63;;;20.90;99.90;;;;;;4905329;29;20048;-81
2022/05/06 13:22:54;;;;;;;12.77;6.82;;;20.80;99.90;;;;;;4920802;29;20040;-82
2022/05/06 13:25:20;;;;;;;11.63;7.10;;;21.00;99.90;;;;;;4921362;29;20036;-82
2022/05/06 13:27:45;;;;;;;10.60;7.22;;;21.30;99.90;;;;;;4920463;29;20050;-82
2022/05/06 13:30:11;;;;;;;19.30;9.52;;;21.60;99.90;;;;;;4905007;29;20378;-82
2022/05/06 13:32:37;;;;;;;17.98;10.65;;;21.80;99.90;;;;;;4920736;29;20039;-82
2022/05/06 13:35:03;;;;;;;16.45;11.50;;;22.00;99.90;;;;;;4920621;29;20436;-82
2022/05/06 13:37:28;;;;;;;15.30;10.18;;;22.00;99.90;;;;;;4920230;29;20052;-83
2022/05/06 13:39:54;;;;;;;16.98;10.77;;;22.00;99.80;;;;;;4904527;29;20500;-80
2022/05/06 13:42:20;;;;;;;13.35;9.93;;;21.50;99.40;;;;;;4938063;29;20043;-81
2022/05/06 13:44:46;;;;;;;15.60;10.35;;;21.60;99.80;;;;;;4938070;29;20043;-81
2022/05/06 13:47:13;;;;;;;15.15;10.25;;;21.60;99.90;;;;;;4937538;29;20552;-81
2022/05/06 13:49:40;;;;;;;15.50;9.38;;;21.80;99.90;;;;;;4937499;29;20036;-82
2022/05/06 13:52:06;;;;;;;12.82;8.73;;;21.80;99.90;;;;;;4920653;29;20078;-83
2022/05/06 13:54:32;;;;;;;15.82;9.43;;;22.00;99.90;;;;;;4920610;29;20480;-82
2022/05/06 13:59:42;;;;;;;10.07;6.88;;;22.10;98.50;;;;;;4937291;29;20048;-82
2022/05/06 14:02:08;;;;;;;9.77;6.05;;;22.00;97.50;;;;;;4903626;29;20098;-81
2022/05/06 14:04:35;;;;;;;10.40;6.65;;;22.00;96.50;;;;;;4919793;29;20062;-81
2022/05/06 14:07:02;;;;;;;11.32;7.70;;;22.10;96.50;;;;;;4919905;29;20464;-83
2022/05/06 14:09:28;;;;;;;11.98;8.07;;;21.80;96.30;;;;;;4935744;29;20511;-82
2022/05/06 14:11:53;;;;;;;12.77;8.23;;;22.20;96.70;;;;;;4937390;29;20039;-81
2022/05/06 14:14:20;;;;;;;9.00;6.15;;;22.20;96.70;;;;;;4919315;29;20160;-85
2022/05/06 14:16:46;;;;;;;10.27;7.97;;;22.60;95.90;;;;;;4937016;29;20052;-83
2022/05/06 14:19:11;;;;;;;12.85;8.27;;;22.30;95.10;;;;;;4920285;29;20070;-82
2022/05/06 14:21:37;;;;;;;18.52;9.82;;;22.30;94.30;;;;;;4937023;29;20173;-82
2022/05/06 14:24:03;;;;;;;13.38;8.95;;;22.50;94.60;;;;;;4920003;29;20074;-82
2022/05/06 14:26:30;;;;;;;11.88;7.63;;;22.50;94.20;;;;;;4919952;29;20392;-81
2022/05/06 14:28:56;;;;;;;14.98;7.82;;;22.60;93.30;;;;;;4919980;29;20047;-81
2022/05/06 14:31:22;;;;;;;12.90;8.15;;;22.60;93.10;;;;;;4919330;29;20047;-82
2022/05/06 14:33:48;;;;;;;12.63;9.13;;;22.50;93.80;;;;;;4919158;29;20111;-84
2022/05/06 14:36:19;;;;;;;12.90;8.63;;;22.40;93.70;;;;;;4936383;29;20040;-82
2022/05/06 14:38:48;;;;;;;11.27;7.78;;;22.60;94.20;;;;;;4919557;29;20070;-83
2022/05/06 14:41:14;;;;;;;11.73;7.88;;;22.80;94.40;;;;;;4936254;29;20381;-82
2022/05/06 14:43:40;;;;;;;12.98;7.80;;;22.80;93.50;;;;;;4919279;29;20114;-81
2022/05/06 14:46:06;;;;;;;12.10;8.38;;;22.80;93.50;;;;;;4903234;29;20101;-80
2022/05/06 14:48:31;;;;;;;13.60;9.13;;;22.80;93.10;;;;;;4919114;29;20036;-82
2022/05/06 14:50:57;;;;;;;13.43;9.32;;;22.40;93.10;;;;;;4903095;29;20083;-83
2022/05/06 14:53:23;;;;;;;15.45;8.55;;;22.30;92.80;;;;;;4919076;29;20051;-82
2022/05/06 14:55:49;;;;;;;12.07;8.82;;;22.30;93.30;;;;;;4936205;29;20043;-83
2022/05/06 14:58:14;;;;;;;12.98;7.78;;;22.50;93.30;;;;;;4918738;29;20039;-82
2022/05/06 15:00:40;;;;;;;12.80;7.72;;;22.60;93.00;;;;;;4918801;29;20067;-84
2022/05/06 15:03:06;;;;;;;10.65;7.28;;;22.30;92.60;;;;;;4919095;29;20058;-82
2022/05/06 15:05:31;;;;;;;11.25;7.72;;;22.50;93.00;;;;;;4918858;29;20039;-82
2022/05/06 15:07:57;;;;;;;10.75;8.48;;;22.30;92.80;;;;;;4936234;29;20040;-82
2022/05/06 15:10:23;;;;;;;13.70;8.55;;;22.50;92.90;;;;;;4918891;29;20091;-83
2022/05/06 15:12:49;;;;;;;12.48;9.20;;;22.60;93.00;;;;;;4936338;29;20074;-82
2022/05/06 15:15:14;;;;;;;12.20;8.52;;;22.50;92.40;;;;;;4919619;29;20090;-82
2022/05/06 15:17:40;;;;;;;12.38;8.30;;;22.50;92.00;;;;;;4903469;29;20044;-79
2022/05/06 15:20:06;;;;;;;17.00;9.38;;;22.30;92.20;;;;;;4920679;29;20171;-82
2022/05/06 15:22:33;;;;;;;12.18;8.95;;;22.50;92.40;;;;;;4922405;29;20492;-81
2022/05/06 15:24:59;;;;;;;13.55;9.38;;;22.50;92.40;;;;;;4922176;29;20052;-82
2022/05/06 15:27:26;;;;;;;11.40;8.82;;;22.50;92.50;;;;;;4922047;29;20046;-82
2022/05/06 15:29:52;;;;;;;15.82;9.23;;;22.70;93.10;;;;;;4922292;29;20163;-81
2022/05/06 15:32:18;;;;;;;12.73;8.43;;;22.60;92.80;;;;;;4922059;29;20052;-82
2022/05/06 15:34:44;;;;;;;14.13;9.43;;;22.80;92.40;;;;;;4922552;29;20066;-82
2022/05/06 15:37:10;;;;;;;11.38;8.15;;;22.30;92.40;;;;;;4921997;29;20055;-80
2022/05/06 15:39:36;;;;;;;15.50;8.68;;;22.70;92.40;;;;;;4921917;29;20572;-80
2022/05/06 15:42:03;;;;;;;11.52;8.05;;;22.80;91.80;;;;;;4921689;29;20130;-81
2022/05/06 15:44:28;;;;;;;16.10;8.77;;;22.50;91.20;;;;;;4922112;29;20076;-81
2022/05/06 15:46:54;;;;;;;11.07;7.65;;;22.50;91.60;;;;;;4921745;29;20050;-82
2022/05/06 15:49:20;;;;;;;11.20;7.75;;;22.60;91.90;;;;;;4922034;29;20095;-83
2022/05/06 15:51:46;;;;;;;14.32;8.45;;;22.60;91.70;;;;;;4922057;29;20389;-81
2022/05/06 15:54:12;;;;;;;11.93;8.43;;;22.40;91.60;;;;;;4921791;29;20110;-81
2022/05/06 15:56:38;;;;;;;14.85;9.10;;;22.40;92.00;;;;;;4939310;29;20389;-82
2022/05/06 15:59:04;;;;;;;13.05;7.93;;;22.50;92.20;;;;;;4921776;29;20043;-81
2022/05/06 16:01:30;;;;;;;12.95;8.57;;;22.30;91.80;;;;;;4938634;29;20070;-82
2022/05/06 16:03:56;;;;;;;11.90;9.30;;;22.20;92.10;;;;;;4921823;29;20052;-81
2022/05/06 16:06:22;;;;;;;13.02;9.27;;;22.10;92.40;;;;;;4922037;29;20043;-83
2022/05/06 16:08:47;;;;;;;13.70;8.93;;;22.10;92.30;;;;;;4921244;29;20407;-81
2022/05/06 16:11:13;;;;;;;13.60;9.38;;;22.30;92.30;;;;;;4921674;29;20422;-79
2022/05/06 16:13:39;;;;;;;15.45;8.48;;;21.90;92.10;;;;;;4921337;29;20098;-81
2022/05/06 16:16:08;;;;;;;14.70;7.90;;;21.70;92.20;;;;;;4921861;29;20122;-82
2022/05/06 16:18:33;;;;;;;13.02;8.25;;;21.90;92.60;;;;;;4921639;29;20517;-81